Time;durP1;ratioP1;P1;durP2;ratioP2;P2;SDS_P1;SDS_P2;PMS_P1;PMS_P2;Temp;Humidity;BMP_temperature;BMP_pressure;BME280_temperature;BME280_humidity;BME280_pressure;Samples;Min_cycle;Max_cycle;Signal;HPM_P1;HPM_P2
2022/01/23 00:00:19;;;;;;;12.10;4.70;;;5.80;99.90;;;;;;5055429;28;20452;-72
2022/01/23 00:02:47;;;;;;;12.88;4.72;;;5.80;99.90;;;;;;5071934;28;20105;-72
2022/01/23 00:05:14;;;;;;;9.32;4.20;;;5.80;99.90;;;;;;5052720;28;20036;-72
2022/01/23 00:07:41;;;;;;;13.63;4.90;;;5.80;99.90;;;;;;5055277;28;20036;-71
2022/01/23 00:10:09;;;;;;;11.48;5.22;;;5.80;99.90;;;;;;5071711;28;20043;-72
2022/01/23 00:12:44;;;;;;;9.57;5.32;;;5.80;99.90;;;;;;5071997;28;20037;-71
2022/01/23 00:17:57;;;;;;;14.45;5.68;;;5.80;99.90;;;;;;5050916;28;20052;-72
2022/01/23 00:20:23;;;;;;;15.35;5.32;;;5.70;99.90;;;;;;5071820;28;20043;-72
2022/01/23 00:22:59;;;;;;;10.30;4.97;;;5.80;99.90;;;;;;5071426;28;20064;-72
2022/01/23 00:30:58;;;;;;;11.50;5.30;;;5.80;99.90;;;;;;5074706;28;20062;-72
2022/01/23 00:33:25;;;;;;;10.80;5.35;;;5.70;99.90;;;;;;5074651;28;20089;-72
2022/01/23 00:35:51;;;;;;;13.60;5.03;;;5.70;99.90;;;;;;5055597;28;20036;-71
2022/01/23 00:38:18;;;;;;;7.68;4.88;;;5.80;99.90;;;;;;5074595;28;20097;-71
2022/01/23 00:40:46;;;;;;;15.25;5.35;;;5.70;99.90;;;;;;5057251;28;20389;-71
2022/01/23 00:43:32;;;;;;;9.05;5.57;;;5.80;99.90;;;;;;5074737;28;20181;-72
2022/01/23 00:51:26;;;;;;;8.55;4.93;;;5.70;99.90;;;;;;5074381;28;20055;-71
2022/01/23 00:53:56;;;;;;;10.52;4.63;;;5.70;99.90;;;;;;5057540;28;20046;-71
2022/01/23 00:56:22;;;;;;;6.88;4.05;;;5.70;99.90;;;;;;5074630;28;20526;-71
2022/01/23 00:58:48;;;;;;;11.52;4.63;;;5.70;99.90;;;;;;5074448;28;20127;-71
2022/01/23 01:01:15;;;;;;;9.15;4.03;;;5.70;99.90;;;;;;5074179;28;20062;-71
2022/01/23 01:03:41;;;;;;;9.77;3.97;;;5.70;99.90;;;;;;5073558;28;20043;-71
2022/01/23 01:06:07;;;;;;;8.93;3.92;;;5.70;99.90;;;;;;5072449;28;20123;-71
2022/01/23 01:08:33;;;;;;;8.02;3.97;;;5.70;99.90;;;;;;5057334;28;20127;-71
2022/01/23 01:32:53;;;;;;;8.73;3.67;;;5.70;99.90;;;;;;5074073;28;20032;-71
2022/01/23 01:35:37;;;;;;;6.28;2.97;;;5.70;99.90;;;;;;5054996;28;20039;-71
2022/01/23 01:38:03;;;;;;;6.25;3.30;;;5.70;99.90;;;;;;5057442;28;20126;-72
2022/01/23 01:40:29;;;;;;;7.03;3.20;;;5.70;99.90;;;;;;5057134;28;20040;-72
2022/01/23 01:42:56;;;;;;;8.65;3.50;;;5.70;99.90;;;;;;5073665;28;20122;-72
2022/01/23 01:45:23;;;;;;;9.35;3.60;;;5.70;99.90;;;;;;5073665;28;20040;-71
2022/01/23 01:47:56;;;;;;;6.43;3.22;;;5.70;99.90;;;;;;5056913;28;20565;-71
2022/01/23 01:50:22;;;;;;;8.15;3.80;;;5.70;99.90;;;;;;5073610;28;20115;-71
2022/01/23 01:52:48;;;;;;;9.25;4.13;;;5.70;99.90;;;;;;5059086;28;20480;-71
2022/01/23 01:55:23;;;;;;;7.93;3.47;;;5.70;99.90;;;;;;5077893;28;20072;-71
2022/01/23 01:57:54;;;;;;;6.43;3.47;;;5.70;99.90;;;;;;5077880;28;20105;-71
2022/01/23 02:08:20;;;;;;;8.52;3.60;;;5.70;99.90;;;;;;5077491;28;20580;-71
2022/01/23 02:11:00;;;;;;;8.35;3.83;;;5.60;99.90;;;;;;5078318;28;20067;-72
2022/01/23 02:13:35;;;;;;;11.85;4.15;;;5.60;99.90;;;;;;5078282;28;20123;-71
2022/01/23 02:51:13;;;;;;;9.63;4.72;;;5.40;99.90;;;;;;5057518;28;20403;-72
2022/01/23 02:54:07;;;;;;;10.68;4.50;;;5.50;99.90;;;;;;5057299;28;20505;-71
2022/01/23 02:56:34;;;;;;;7.57;3.95;;;5.40;99.90;;;;;;5056787;28;20040;-72
2022/01/23 02:59:11;;;;;;;9.00;4.03;;;5.50;99.90;;;;;;5057690;28;20489;-72
2022/01/23 03:01:47;;;;;;;5.53;3.40;;;5.40;99.90;;;;;;5057239;28;20048;-72
2022/01/23 03:04:13;;;;;;;10.27;4.03;;;5.50;99.90;;;;;;5037587;28;20051;-72
2022/01/23 03:09:52;;;;;;;7.95;3.35;;;5.50;99.90;;;;;;5057049;28;20519;-71
2022/01/23 03:25:37;;;;;;;8.70;4.07;;;5.50;99.90;;;;;;5077318;28;20380;-71
2022/01/23 03:28:49;;;;;;;9.82;4.18;;;5.50;99.90;;;;;;5075578;28;20036;-71
2022/01/23 03:31:05;;;;;;;9.38;4.43;;;5.50;99.90;;;;;;5065970;28;20051;-71
2022/01/23 03:33:32;;;;;;;9.85;4.32;;;5.50;99.90;;;;;;5077023;28;20048;-71
2022/01/23 03:35:58;;;;;;;10.93;4.63;;;5.50;99.90;;;;;;5074615;28;20036;-71
2022/01/23 03:38:24;;;;;;;9.68;4.60;;;5.50;99.90;;;;;;5076689;28;20476;-71
2022/01/23 03:40:50;;;;;;;9.52;4.03;;;5.50;99.90;;;;;;5060232;28;20036;-71
2022/01/23 03:43:22;;;;;;;8.20;4.03;;;5.50;99.90;;;;;;5076446;28;20040;-71
2022/01/23 03:46:19;;;;;;;10.27;4.38;;;5.50;99.90;;;;;;5076604;28;20043;-71
2022/01/23 03:51:09;;;;;;;9.25;4.18;;;5.50;99.90;;;;;;5076551;28;20392;-71
2022/01/23 03:53:37;;;;;;;9.20;4.43;;;5.50;99.90;;;;;;5076701;28;20185;-71
2022/01/23 03:56:05;;;;;;;12.25;5.05;;;5.50;99.90;;;;;;5059685;28;20043;-71
2022/01/23 03:58:32;;;;;;;10.15;3.90;;;5.50;99.90;;;;;;5076550;28;20488;-71
2022/01/23 04:00:58;;;;;;;11.50;4.35;;;5.40;99.90;;;;;;5076430;28;20148;-72
2022/01/23 04:03:25;;;;;;;9.20;4.13;;;5.40;99.90;;;;;;5076054;28;20043;-71
2022/01/23 04:05:51;;;;;;;10.05;4.35;;;5.40;99.90;;;;;;5073993;28;20044;-71
2022/01/23 04:08:18;;;;;;;7.90;4.20;;;5.40;99.90;;;;;;5075997;28;20484;-71
2022/01/23 04:10:44;;;;;;;9.98;4.38;;;5.40;99.90;;;;;;5076267;28;20414;-71
2022/01/23 04:13:22;;;;;;;6.60;3.83;;;5.40;99.90;;;;;;5059331;28;20047;-71
2022/01/23 04:31:38;;;;;;;11.85;4.63;;;5.30;99.90;;;;;;5075567;28;20048;-72
2022/01/23 04:46:03;;;;;;;8.88;4.05;;;5.10;99.90;;;;;;5055597;28;20059;-71
2022/01/23 04:59:49;;;;;;;8.40;4.43;;;5.20;99.90;;;;;;5055214;28;20036;-71
2022/01/23 05:02:53;;;;;;;14.35;5.05;;;5.10;99.90;;;;;;5055102;28;20052;-71
2022/01/23 05:05:04;;;;;;;13.88;5.63;;;5.10;99.90;;;;;;5052405;28;20391;-71
2022/01/23 05:07:30;;;;;;;9.80;3.92;;;5.20;99.90;;;;;;5055228;28;20118;-71
2022/01/23 05:09:56;;;;;;;16.88;5.30;;;5.10;99.90;;;;;;5055170;28;20496;-71
2022/01/23 05:12:26;;;;;;;7.70;4.32;;;5.10;99.90;;;;;;5054850;28;20076;-71
2022/01/23 05:14:52;;;;;;;8.55;4.15;;;5.10;99.90;;;;;;5055289;28;20048;-71
2022/01/23 05:17:19;;;;;;;13.43;4.47;;;5.10;99.90;;;;;;5055182;28;20051;-71
2022/01/23 05:19:45;;;;;;;15.68;5.45;;;5.00;99.90;;;;;;5038473;28;20044;-71
2022/01/23 05:25:17;;;;;;;34.55;8.02;;;5.00;99.90;;;;;;5075170;28;20040;-71
2022/01/23 05:27:43;;;;;;;46.38;8.57;;;5.00;99.90;;;;;;5074419;28;20062;-71
2022/01/23 05:30:10;;;;;;;51.08;9.65;;;5.00;99.90;;;;;;5058135;28;20040;-71
2022/01/23 05:32:40;;;;;;;45.80;7.40;;;5.00;99.90;;;;;;5074683;28;20032;-71
2022/01/23 05:35:08;;;;;;;34.45;6.95;;;5.00;99.90;;;;;;5072516;28;20048;-71
2022/01/23 05:37:35;;;;;;;76.55;11.88;;;5.00;99.90;;;;;;5074962;28;20120;-71
2022/01/23 05:40:01;;;;;;;46.67;7.55;;;5.00;99.90;;;;;;5058135;28;20100;-71
2022/01/23 05:42:27;;;;;;;34.95;7.15;;;5.00;99.90;;;;;;5058217;28;20088;-71
2022/01/23 05:44:53;;;;;;;22.83;6.72;;;5.00;99.90;;;;;;5074684;28;20487;-71
2022/01/23 05:47:18;;;;;;;26.08;6.75;;;5.00;99.90;;;;;;5074650;28;20043;-71
2022/01/23 05:49:44;;;;;;;16.08;5.20;;;5.10;99.90;;;;;;5057964;28;20036;-71
2022/01/23 05:52:10;;;;;;;10.27;4.88;;;5.00;99.90;;;;;;5074727;28;20040;-71
2022/01/23 05:54:36;;;;;;;11.73;5.45;;;5.10;99.90;;;;;;5074855;28;20097;-71
2022/01/23 05:57:03;;;;;;;15.65;6.22;;;5.00;99.90;;;;;;5057944;28;20044;-71
2022/01/23 05:59:29;;;;;;;14.70;5.15;;;5.10;99.90;;;;;;5074520;28;20040;-71
2022/01/23 06:01:55;;;;;;;8.02;4.07;;;5.00;99.90;;;;;;5058072;28;20093;-71
2022/01/23 06:04:24;;;;;;;8.43;4.07;;;5.00;99.90;;;;;;5072103;28;20039;-71
2022/01/23 06:06:50;;;;;;;14.88;5.75;;;5.00;99.90;;;;;;5058098;28;20556;-71
2022/01/23 06:09:19;;;;;;;54.72;9.23;;;5.00;99.90;;;;;;5057643;28;20372;-71
2022/01/23 06:11:45;;;;;;;38.15;8.93;;;5.00;99.90;;;;;;5057681;28;20504;-71
2022/01/23 06:14:10;;;;;;;34.15;8.32;;;4.90;99.90;;;;;;5074616;28;20040;-71
2022/01/23 06:16:38;;;;;;;16.45;6.10;;;4.90;99.90;;;;;;5074391;28;20040;-71
2022/01/23 06:19:04;;;;;;;18.50;6.45;;;4.90;99.90;;;;;;5074240;28;20036;-71
2022/01/23 06:21:30;;;;;;;13.52;5.72;;;4.90;99.90;;;;;;5074220;28;20056;-71
2022/01/23 06:26:47;;;;;;;11.68;5.00;;;4.80;99.90;;;;;;5074256;28;20047;-72
2022/01/23 06:29:16;;;;;;;10.93;4.63;;;4.80;99.90;;;;;;5057355;28;20040;-71
2022/01/23 06:31:42;;;;;;;11.10;4.57;;;4.80;99.90;;;;;;5057836;28;20063;-71
2022/01/23 06:34:09;;;;;;;9.40;4.40;;;4.80;99.90;;;;;;5071944;28;20048;-71
2022/01/23 06:36:37;;;;;;;10.10;4.25;;;4.80;99.90;;;;;;5074252;28;20496;-71
2022/01/23 06:39:05;;;;;;;11.70;4.85;;;4.90;99.90;;;;;;5058328;28;20086;-71
2022/01/23 06:41:31;;;;;;;19.77;4.20;;;4.90;99.90;;;;;;5061409;28;20040;-71
2022/01/23 06:43:57;;;;;;;11.65;4.45;;;4.90;99.90;;;;;;5061326;28;20040;-71
2022/01/23 06:46:23;;;;;;;18.45;5.15;;;5.00;99.90;;;;;;5061078;28;20042;-72
2022/01/23 06:48:50;;;;;;;34.78;6.75;;;5.00;99.90;;;;;;5077556;28;20119;-72
2022/01/23 06:51:16;;;;;;;32.45;6.75;;;5.00;99.90;;;;;;5060992;28;20044;-71
2022/01/23 06:53:42;;;;;;;49.50;8.88;;;5.00;99.90;;;;;;5077676;28;20043;-71
2022/01/23 06:56:07;;;;;;;33.95;6.78;;;5.00;99.90;;;;;;5060846;28;20388;-71
2022/01/23 06:58:33;;;;;;;13.93;4.85;;;5.00;99.90;;;;;;5077676;28;20036;-71
2022/01/23 07:00:59;;;;;;;28.33;7.30;;;5.10;99.90;;;;;;5077468;28;20079;-72
2022/01/23 07:03:25;;;;;;;21.55;6.07;;;5.10;99.90;;;;;;5077355;28;20048;-71
2022/01/23 07:05:51;;;;;;;26.88;7.90;;;5.10;99.90;;;;;;5058365;28;20043;-71
2022/01/23 07:08:18;;;;;;;28.85;8.95;;;5.10;99.90;;;;;;5060457;28;20174;-71
2022/01/23 07:10:44;;;;;;;31.50;8.85;;;5.10;99.90;;;;;;5077237;28;20044;-71
2022/01/23 07:13:09;;;;;;;23.13;7.20;;;5.10;99.90;;;;;;5077192;28;20036;-71
2022/01/23 07:15:35;;;;;;;28.85;8.25;;;5.10;99.90;;;;;;5077328;28;20032;-71
2022/01/23 07:18:01;;;;;;;32.03;8.70;;;5.10;99.90;;;;;;5077453;28;20462;-71
2022/01/23 07:20:27;;;;;;;42.70;9.82;;;5.10;99.90;;;;;;5076920;28;20388;-71
2022/01/23 07:22:54;;;;;;;27.17;8.77;;;5.00;99.90;;;;;;5076914;28;20484;-71
2022/01/23 07:25:20;;;;;;;38.88;9.75;;;5.00;99.90;;;;;;5060461;28;20476;-71
2022/01/23 07:27:50;;;;;;;33.33;10.07;;;5.00;99.90;;;;;;5076885;28;20039;-71
2022/01/23 07:30:31;;;;;;;43.20;10.80;;;5.00;99.90;;;;;;5045488;28;20123;-71
2022/01/23 07:32:57;;;;;;;38.13;9.95;;;5.00;99.90;;;;;;5056965;28;20063;-71
2022/01/23 07:35:23;;;;;;;23.30;8.38;;;5.00;99.90;;;;;;5054794;28;20488;-71
2022/01/23 07:37:48;;;;;;;21.70;8.70;;;5.10;99.90;;;;;;5057019;28;20447;-71
2022/01/23 07:40:14;;;;;;;19.33;8.35;;;5.10;99.90;;;;;;5040218;28;20044;-71
2022/01/23 07:42:40;;;;;;;29.40;9.48;;;5.10;99.90;;;;;;5056672;28;20473;-70
2022/01/23 07:45:07;;;;;;;22.00;8.35;;;5.10;99.90;;;;;;5039737;28;20040;-70
2022/01/23 07:47:34;;;;;;;21.77;8.48;;;5.10;99.90;;;;;;5073317;28;20036;-71
2022/01/23 07:50:01;;;;;;;34.47;10.55;;;5.10;99.90;;;;;;5056043;28;20090;-71
2022/01/23 07:52:30;;;;;;;25.38;9.23;;;5.10;99.90;;;;;;5073086;28;20044;-71
2022/01/23 07:54:57;;;;;;;30.35;10.60;;;5.20;99.90;;;;;;5073261;28;20095;-71
2022/01/23 07:57:23;;;;;;;28.15;10.70;;;5.20;99.90;;;;;;5072923;28;20045;-71
2022/01/23 07:59:49;;;;;;;28.88;11.30;;;5.20;99.90;;;;;;5072857;28;20045;-70
2022/01/23 08:02:14;;;;;;;26.58;11.38;;;5.20;99.90;;;;;;5072742;28;20040;-70
2022/01/23 08:04:40;;;;;;;30.92;10.93;;;5.20;99.90;;;;;;5070725;28;20040;-71
2022/01/23 08:07:09;;;;;;;24.30;9.93;;;5.30;99.90;;;;;;5072874;28;20365;-71
2022/01/23 08:09:36;;;;;;;21.63;8.63;;;5.30;99.90;;;;;;5072653;28;20136;-71
2022/01/23 08:12:02;;;;;;;25.90;9.60;;;5.30;99.90;;;;;;5072900;28;20385;-71
2022/01/23 08:14:28;;;;;;;26.77;8.95;;;5.30;99.90;;;;;;5056305;28;20158;-71
2022/01/23 08:16:53;;;;;;;27.67;9.00;;;5.40;99.90;;;;;;5072463;28;20439;-70
2022/01/23 08:19:19;;;;;;;26.17;8.68;;;5.40;99.90;;;;;;5056069;28;20101;-70
2022/01/23 08:21:45;;;;;;;16.67;7.18;;;5.40;99.90;;;;;;5078313;28;20110;-70
2022/01/23 08:24:11;;;;;;;17.75;7.85;;;5.40;99.90;;;;;;5092893;28;20050;-71
2022/01/23 08:26:37;;;;;;;18.67;7.75;;;5.50;99.90;;;;;;5092253;28;20450;-71
2022/01/23 08:29:07;;;;;;;12.20;6.38;;;5.50;99.90;;;;;;5091265;28;20040;-71
2022/01/23 08:31:33;;;;;;;12.63;6.05;;;5.50;99.90;;;;;;5058965;28;20043;-70
2022/01/23 08:33:59;;;;;;;17.10;6.97;;;5.60;99.90;;;;;;5056735;28;20096;-71
2022/01/23 08:36:26;;;;;;;15.70;7.25;;;5.60;99.90;;;;;;5075564;28;20096;-71
2022/01/23 08:38:52;;;;;;;17.35;7.35;;;5.60;99.90;;;;;;5056653;28;20032;-71
2022/01/23 08:43:48;;;;;;;14.55;7.45;;;5.70;99.90;;;;;;5075504;28;20046;-71
2022/01/23 08:46:15;;;;;;;16.75;7.00;;;5.70;99.90;;;;;;5075250;28;20044;-71
2022/01/23 08:48:41;;;;;;;17.55;7.07;;;5.70;99.90;;;;;;5075353;28;20032;-71
2022/01/23 08:51:08;;;;;;;16.10;7.28;;;5.80;99.90;;;;;;5058412;28;20093;-71
2022/01/23 08:53:34;;;;;;;16.55;6.93;;;5.80;99.90;;;;;;5058884;28;20490;-71
2022/01/23 08:56:00;;;;;;;15.43;6.57;;;5.80;99.90;;;;;;5074922;28;20075;-71
2022/01/23 08:58:26;;;;;;;18.88;7.25;;;5.80;99.90;;;;;;5058437;28;20100;-71
2022/01/23 09:00:52;;;;;;;17.85;7.88;;;5.90;99.90;;;;;;5075415;28;20144;-71
2022/01/23 09:03:18;;;;;;;21.15;8.45;;;5.90;99.90;;;;;;5074231;28;20455;-71
2022/01/23 09:05:44;;;;;;;20.88;8.93;;;5.90;99.90;;;;;;5056358;28;20087;-71
2022/01/23 09:08:09;;;;;;;24.55;9.50;;;6.00;99.90;;;;;;5074944;28;20380;-72
2022/01/23 09:10:52;;;;;;;19.50;9.88;;;6.00;99.90;;;;;;5074732;28;20131;-71
2022/01/23 09:16:10;;;;;;;21.33;8.57;;;6.10;99.90;;;;;;5051611;28;20043;-72
2022/01/23 09:18:36;;;;;;;26.10;10.00;;;6.10;99.90;;;;;;5058412;28;20031;-71
2022/01/23 09:21:03;;;;;;;20.38;9.38;;;6.10;99.90;;;;;;5074539;28;20498;-71
2022/01/23 09:23:30;;;;;;;20.30;10.23;;;6.10;99.90;;;;;;5038650;28;20055;-72
2022/01/23 09:25:58;;;;;;;20.08;8.75;;;6.10;99.90;;;;;;5055114;28;20075;-71
2022/01/23 09:28:30;;;;;;;22.05;8.93;;;6.20;99.90;;;;;;5054761;28;20043;-72
2022/01/23 09:30:57;;;;;;;13.38;7.13;;;6.20;99.90;;;;;;5051559;28;20067;-72
2022/01/23 09:33:22;;;;;;;17.30;7.68;;;6.30;99.90;;;;;;5038221;28;20040;-72
2022/01/23 09:35:48;;;;;;;14.88;7.57;;;6.30;99.90;;;;;;5052467;28;20124;-71
2022/01/23 09:38:14;;;;;;;15.02;6.85;;;6.30;99.90;;;;;;5038088;28;20048;-72
2022/01/23 09:40:44;;;;;;;16.35;8.18;;;6.30;99.90;;;;;;5054945;28;20134;-72
2022/01/23 09:43:16;;;;;;;15.23;7.82;;;6.40;99.90;;;;;;5054869;28;20040;-72
2022/01/23 09:45:47;;;;;;;16.83;8.00;;;6.40;99.90;;;;;;5036881;28;20048;-72
2022/01/23 09:48:13;;;;;;;16.42;7.63;;;6.40;99.90;;;;;;5054966;28;20047;-72
2022/01/23 09:50:43;;;;;;;17.70;8.88;;;6.50;99.90;;;;;;5054544;28;20696;-72
2022/01/23 09:53:12;;;;;;;17.67;8.85;;;6.50;99.90;;;;;;5053857;28;20032;-72
2022/01/23 09:55:42;;;;;;;;;;;6.60;99.90;;;;;;5054943;28;20115;-72
2022/01/23 09:58:08;;;;;;;15.02;7.10;;;6.60;99.90;;;;;;5054847;28;19920;-72
2022/01/23 10:00:35;;;;;;;13.75;6.80;;;6.60;99.90;;;;;;5054452;28;20128;-72
2022/01/23 10:03:00;;;;;;;12.85;6.72;;;6.70;99.90;;;;;;5038246;28;20036;-72
2022/01/23 10:05:27;;;;;;;12.55;7.38;;;6.60;99.90;;;;;;5052703;28;20055;-72
2022/01/23 10:07:56;;;;;;;15.55;6.75;;;6.70;99.90;;;;;;5037651;28;20056;-72
2022/01/23 10:10:27;;;;;;;12.45;5.80;;;6.70;99.90;;;;;;5054672;28;20438;-72
2022/01/23 10:12:55;;;;;;;;;;;6.70;99.90;;;;;;5055630;28;20051;-72
2022/01/23 10:15:25;;;;;;;9.18;5.07;;;6.80;99.90;;;;;;5058383;28;19916;-72
2022/01/23 10:17:51;;;;;;;14.63;6.00;;;6.80;99.90;;;;;;5057369;28;20045;-71
2022/01/23 10:20:17;;;;;;;8.43;4.80;;;6.80;99.90;;;;;;5040803;28;20044;-72
2022/01/23 10:22:47;;;;;;;7.57;4.10;;;6.80;99.90;;;;;;5056911;28;20048;-72
2022/01/23 10:25:24;;;;;;;8.75;4.05;;;6.80;99.90;;;;;;5040804;28;20106;-72
2022/01/23 10:27:51;;;;;;;10.23;3.33;;;6.90;99.90;;;;;;5040460;28;20119;-72
2022/01/23 10:30:19;;;;;;;6.10;3.05;;;6.90;99.90;;;;;;5056831;28;20037;-72
2022/01/23 10:33:07;;;;;;;8.27;3.38;;;6.90;99.90;;;;;;5040195;28;20124;-72
2022/01/23 10:35:51;;;;;;;6.60;2.95;;;6.90;99.90;;;;;;5037878;28;20032;-72
2022/01/23 10:38:18;;;;;;;8.10;3.15;;;6.90;99.90;;;;;;5040015;28;20048;-72
2022/01/23 10:40:50;;;;;;;9.15;3.50;;;7.00;99.90;;;;;;5040133;28;20040;-72
2022/01/23 10:48:45;;;;;;;6.00;3.45;;;7.00;99.90;;;;;;5056473;28;20040;-71
2022/01/23 10:51:14;;;;;;;6.15;3.60;;;7.10;99.90;;;;;;5065579;28;20045;-71
2022/01/23 10:54:02;;;;;;;5.68;2.67;;;7.10;99.90;;;;;;5073778;28;20051;-72
2022/01/23 10:56:30;;;;;;;5.68;3.45;;;7.10;99.90;;;;;;5073873;28;20040;-71
2022/01/23 10:59:11;;;;;;;7.65;4.28;;;7.20;99.90;;;;;;5074134;28;20086;-72
2022/01/23 11:01:38;;;;;;;6.18;3.17;;;7.20;99.90;;;;;;5073945;28;20431;-71
2022/01/23 11:04:13;;;;;;;7.68;3.92;;;7.20;99.90;;;;;;5072075;28;20063;-72
2022/01/23 11:06:52;;;;;;;6.35;3.38;;;7.30;99.90;;;;;;5056892;28;20481;-72
2022/01/23 11:09:18;;;;;;;7.90;3.67;;;7.30;99.90;;;;;;5073311;28;20070;-72
2022/01/23 11:11:47;;;;;;;5.50;2.95;;;7.40;99.90;;;;;;5072861;28;20040;-72
2022/01/23 11:19:49;;;;;;;6.20;2.67;;;7.40;99.90;;;;;;5072762;28;20127;-72
2022/01/23 11:22:20;;;;;;;3.83;2.10;;;7.50;99.90;;;;;;5082721;28;20146;-72
2022/01/23 11:24:48;;;;;;;4.18;1.88;;;7.50;99.90;;;;;;5092340;28;20048;-72
2022/01/23 11:27:16;;;;;;;2.42;1.50;;;7.60;99.90;;;;;;5075795;28;20089;-71
2022/01/23 11:30:05;;;;;;;2.90;1.75;;;7.60;99.90;;;;;;5086373;28;20051;-72
2022/01/23 11:32:36;;;;;;;4.18;1.83;;;7.60;99.90;;;;;;5059389;28;20089;-72
2022/01/23 11:35:09;;;;;;;3.38;1.77;;;7.60;99.90;;;;;;5073776;28;20062;-72
2022/01/23 11:37:39;;;;;;;2.92;1.70;;;7.60;99.90;;;;;;5075661;28;20122;-72
2022/01/23 11:40:26;;;;;;;3.60;1.98;;;7.60;99.90;;;;;;5075580;28;20556;-72
2022/01/23 11:54:03;;;;;;;2.75;1.40;;;7.80;99.90;;;;;;5075376;28;20040;-72
2022/01/23 11:56:35;;;;;;;3.72;2.00;;;7.90;99.90;;;;;;5075398;28;20036;-72
2022/01/23 11:59:10;;;;;;;4.07;1.92;;;7.90;99.90;;;;;;5058846;28;20066;-72
2022/01/23 12:01:39;;;;;;;4.53;1.80;;;7.90;99.90;;;;;;5075560;28;20152;-72
2022/01/23 12:04:08;;;;;;;3.63;1.90;;;7.90;99.90;;;;;;5073019;28;20109;-72
2022/01/23 12:06:36;;;;;;;5.03;2.25;;;7.90;99.90;;;;;;5075471;28;20441;-72
2022/01/23 12:09:11;;;;;;;4.32;2.20;;;8.00;99.90;;;;;;5075013;28;20551;-72
2022/01/23 12:11:46;;;;;;;5.13;2.20;;;8.00;99.90;;;;;;5058403;28;20047;-70
2022/01/23 12:17:02;;;;;;;2.78;1.73;;;8.00;99.90;;;;;;5075020;28;20093;-71
2022/01/23 12:19:45;;;;;;;3.40;1.80;;;8.00;99.90;;;;;;5075141;28;20062;-71
2022/01/23 12:22:28;;;;;;;3.88;1.80;;;8.00;99.90;;;;;;5071541;28;20048;-71
2022/01/23 12:25:06;;;;;;;4.93;2.55;;;8.10;99.90;;;;;;5071428;28;20128;-72
2022/01/23 12:27:32;;;;;;;3.85;2.35;;;8.10;99.90;;;;;;5071756;28;20036;-72
2022/01/23 12:30:31;;;;;;;5.68;2.10;;;8.10;99.90;;;;;;5062747;28;20562;-71
2022/01/23 12:33:15;;;;;;;6.57;2.20;;;8.00;99.90;;;;;;5047356;28;20032;-72
2022/01/23 12:35:46;;;;;;;5.75;3.00;;;8.00;99.90;;;;;;5069066;28;20493;-72
2022/01/23 12:38:13;;;;;;;;;;;8.10;99.90;;;;;;5070881;28;20513;-72
2022/01/23 12:40:47;;;;;;;5.43;2.92;;;8.00;99.90;;;;;;5071141;28;20011;-71
2022/01/23 12:43:21;;;;;;;4.78;3.30;;;7.90;99.90;;;;;;5071315;28;20048;-72
2022/01/23 12:46:05;;;;;;;7.85;3.15;;;7.90;99.90;;;;;;5071386;28;20043;-71
2022/01/23 12:48:36;;;;;;;7.07;4.10;;;7.80;99.90;;;;;;5054326;28;20036;-72
2022/01/23 12:51:14;;;;;;;14.57;7.15;;;7.80;99.90;;;;;;5071158;28;20397;-72
2022/01/23 12:53:46;;;;;;;10.15;6.18;;;7.90;99.90;;;;;;5054543;28;20400;-71
2022/01/23 12:56:17;;;;;;;10.73;4.53;;;7.90;99.90;;;;;;5054443;28;20075;-71
2022/01/23 12:58:50;;;;;;;5.60;3.35;;;7.90;99.90;;;;;;5070820;28;20049;-71
2022/01/23 13:01:23;;;;;;;5.10;3.22;;;8.00;99.90;;;;;;5070831;28;20083;-72
2022/01/23 13:03:54;;;;;;;6.20;4.35;;;8.00;99.90;;;;;;5071040;28;20040;-71
2022/01/23 13:06:49;;;;;;;8.05;4.50;;;8.00;99.90;;;;;;5069103;28;20052;-71
2022/01/23 13:09:35;;;;;;;10.60;4.70;;;8.00;99.90;;;;;;5070606;28;20083;-71
2022/01/23 13:17:47;;;;;;;13.27;5.47;;;7.90;99.90;;;;;;5062208;28;20043;-72
2022/01/23 13:34:21;;;;;;;;;;;7.90;99.90;;;;;;5051660;28;20234;-71
2022/01/23 13:37:05;;;;;;;9.20;4.85;;;7.90;99.90;;;;;;5036996;28;19924;-72
2022/01/23 13:39:44;;;;;;;8.93;4.07;;;7.90;99.90;;;;;;5036892;28;20047;-72
2022/01/23 13:48:02;;;;;;;8.15;5.18;;;7.90;99.90;;;;;;5053505;28;20129;-71
2022/01/23 13:54:16;;;;;;;7.25;4.55;;;7.80;99.90;;;;;;5057618;28;20544;-72
2022/01/23 13:59:31;;;;;;;9.80;4.47;;;7.80;99.90;;;;;;5057451;28;20090;-71
2022/01/23 14:04:29;;;;;;;8.32;4.28;;;7.80;99.90;;;;;;5055111;28;20114;-71
2022/01/23 14:06:55;;;;;;;10.48;5.00;;;7.80;99.90;;;;;;5057588;28;20048;-71
2022/01/23 14:09:23;;;;;;;9.07;4.55;;;7.80;99.90;;;;;;5057316;28;20468;-71
2022/01/23 14:11:50;;;;;;;7.95;4.72;;;7.80;99.90;;;;;;5057625;28;20416;-72
2022/01/23 14:14:27;;;;;;;6.90;3.67;;;7.80;99.90;;;;;;5040444;28;20040;-71
2022/01/23 14:16:55;;;;;;;6.18;3.63;;;7.80;99.90;;;;;;5040697;28;20480;-72
2022/01/23 14:19:23;;;;;;;5.72;3.45;;;7.80;99.90;;;;;;5040819;28;20143;-71
2022/01/23 14:21:56;;;;;;;5.95;3.80;;;7.70;99.90;;;;;;5060525;28;20052;-71
2022/01/23 14:24:30;;;;;;;5.60;3.47;;;7.70;99.90;;;;;;5074027;28;20048;-71
2022/01/23 14:26:55;;;;;;;5.30;3.53;;;7.70;99.90;;;;;;5057203;28;20051;-71
2022/01/23 14:29:22;;;;;;;5.25;3.60;;;7.60;99.90;;;;;;5073581;28;20412;-71
2022/01/23 14:32:16;;;;;;;7.22;3.60;;;7.70;99.90;;;;;;5073773;28;20071;-71
2022/01/23 14:34:42;;;;;;;7.75;4.18;;;7.60;99.90;;;;;;5054625;28;20493;-71
2022/01/23 14:37:08;;;;;;;6.18;3.60;;;7.60;99.90;;;;;;5067929;28;20124;-70
2022/01/23 14:39:35;;;;;;;6.13;3.65;;;7.60;99.90;;;;;;5073384;28;20102;-69
2022/01/23 14:42:17;;;;;;;7.22;4.00;;;7.60;99.90;;;;;;5073679;28;20397;-69
2022/01/23 14:44:44;;;;;;;6.50;3.92;;;7.60;99.90;;;;;;5073537;28;20040;-70
2022/01/23 14:47:10;;;;;;;7.90;4.32;;;7.60;99.90;;;;;;5073364;28;20071;-70
2022/01/23 14:49:37;;;;;;;6.65;4.22;;;7.60;99.90;;;;;;5073322;28;20048;-70
2022/01/23 14:52:09;;;;;;;6.47;4.15;;;7.60;99.90;;;;;;5073226;28;20049;-71
2022/01/23 14:54:36;;;;;;;7.35;4.32;;;7.60;99.90;;;;;;5056921;28;20461;-70
2022/01/23 14:57:06;;;;;;;7.15;3.70;;;7.60;99.90;;;;;;5056820;28;20056;-70
2022/01/23 14:59:33;;;;;;;7.70;4.53;;;7.50;99.90;;;;;;5072590;28;20040;-70
2022/01/23 15:02:00;;;;;;;7.32;4.47;;;7.50;99.90;;;;;;5056608;28;20037;-69
2022/01/23 15:04:26;;;;;;;8.20;4.30;;;7.50;99.90;;;;;;5070713;28;20400;-69
2022/01/23 15:06:52;;;;;;;6.93;4.70;;;7.50;99.90;;;;;;5056382;28;20048;-68
2022/01/23 15:09:20;;;;;;;8.65;4.80;;;7.50;99.90;;;;;;5056367;28;20033;-70
2022/01/23 15:11:46;;;;;;;9.52;5.13;;;7.50;99.90;;;;;;5056492;28;20497;-69
2022/01/23 15:14:13;;;;;;;7.35;4.50;;;7.50;99.90;;;;;;5073249;28;20402;-68
2022/01/23 15:16:40;;;;;;;8.10;4.55;;;7.40;99.90;;;;;;5073157;28;20405;-68
2022/01/23 15:19:07;;;;;;;8.45;5.28;;;7.40;99.90;;;;;;5073121;28;20374;-69
2022/01/23 15:21:34;;;;;;;8.10;5.00;;;7.40;99.90;;;;;;5055212;28;20059;-68
2022/01/23 15:24:00;;;;;;;7.22;4.45;;;7.40;99.90;;;;;;5039200;28;20048;-69
2022/01/23 15:26:29;;;;;;;7.88;4.35;;;7.30;99.90;;;;;;5056040;28;20488;-69
2022/01/23 15:28:55;;;;;;;10.88;5.50;;;7.30;99.90;;;;;;5055807;28;20064;-69
2022/01/23 15:31:22;;;;;;;7.65;4.28;;;7.30;99.90;;;;;;5055772;28;20117;-68
2022/01/23 15:33:48;;;;;;;8.00;5.10;;;7.30;99.90;;;;;;5039493;28;20435;-69
2022/01/23 15:36:14;;;;;;;8.68;5.25;;;7.30;99.90;;;;;;5036614;28;20036;-69
2022/01/23 15:38:42;;;;;;;9.30;5.20;;;7.20;99.90;;;;;;5056035;28;20044;-69
2022/01/23 15:41:09;;;;;;;9.05;5.43;;;7.20;99.90;;;;;;5055581;28;20045;-68
2022/01/23 15:43:35;;;;;;;8.05;5.18;;;7.20;99.90;;;;;;5055666;28;20040;-69
2022/01/23 15:46:01;;;;;;;10.15;4.88;;;7.20;99.90;;;;;;5038847;28;20072;-69
2022/01/23 15:48:30;;;;;;;9.15;4.78;;;7.20;99.90;;;;;;5055669;28;20062;-68
2022/01/23 15:51:00;;;;;;;7.22;4.85;;;7.10;99.90;;;;;;5038824;28;20558;-69
2022/01/23 15:53:26;;;;;;;8.52;4.95;;;7.10;99.90;;;;;;5039372;28;20079;-69
2022/01/23 15:55:52;;;;;;;8.13;5.00;;;7.10;99.90;;;;;;5055467;28;20522;-69
2022/01/23 15:58:18;;;;;;;8.10;4.90;;;7.10;99.90;;;;;;5055222;28;20083;-69
2022/01/23 16:00:44;;;;;;;6.85;4.53;;;7.00;99.90;;;;;;5055724;28;20080;-69
2022/01/23 16:03:10;;;;;;;7.35;5.03;;;7.00;99.90;;;;;;5038423;28;20536;-69
2022/01/23 16:05:36;;;;;;;8.82;4.88;;;7.00;99.90;;;;;;5052751;28;20127;-69
2022/01/23 16:08:02;;;;;;;7.28;4.38;;;7.00;99.90;;;;;;5055161;28;20040;-69
2022/01/23 16:10:28;;;;;;;6.13;3.90;;;7.00;99.90;;;;;;5055171;28;20041;-69
2022/01/23 16:12:54;;;;;;;10.48;5.00;;;6.90;99.90;;;;;;5038194;28;20044;-69
2022/01/23 16:15:21;;;;;;;9.13;5.13;;;6.90;99.90;;;;;;5038386;28;20123;-69
2022/01/23 16:17:48;;;;;;;9.90;4.95;;;6.90;99.90;;;;;;5055238;28;20462;-69
2022/01/23 16:20:16;;;;;;;7.47;4.95;;;6.90;99.90;;;;;;5038332;28;20040;-69
2022/01/23 16:22:44;;;;;;;11.00;5.63;;;6.90;99.90;;;;;;5068364;28;20123;-69
2022/01/23 16:25:11;;;;;;;8.27;5.38;;;6.80;99.90;;;;;;5075300;28;20400;-69
2022/01/23 16:27:38;;;;;;;8.20;5.50;;;6.90;99.90;;;;;;5074916;28;20389;-69
2022/01/23 16:30:06;;;;;;;8.07;5.30;;;6.80;99.90;;;;;;5045627;28;20036;-70